createdAt,value
2023-04-20T00:00:11.451Z,102235.66
2023-04-20T00:02:40.302Z,102231.19
2023-04-20T00:05:11.920Z,102225.97
2023-04-20T00:07:41.608Z,102219.41
2023-04-20T00:10:10.652Z,102229.25
2023-04-20T00:12:38.657Z,102228.97
2023-04-20T00:15:07.904Z,102227.13
2023-04-20T00:17:36.629Z,102233.75
2023-04-20T00:20:05.681Z,102212.75
2023-04-20T00:22:38.267Z,102217.78
2023-04-20T00:25:06.873Z,102230.13
2023-04-20T00:27:34.827Z,102229.47
2023-04-20T00:30:02.896Z,102224.06
2023-04-20T00:32:30.890Z,102233.50
2023-04-20T00:34:58.880Z,102227.00
2023-04-20T00:37:26.930Z,102234.16
2023-04-20T00:39:56.218Z,102249.47
2023-04-20T00:42:24.138Z,102241.09
2023-04-20T00:44:52.240Z,102226.28
2023-04-20T00:47:20.213Z,102217.75
2023-04-20T00:49:48.784Z,102220.88
2023-04-20T00:52:17.057Z,102193.44
2023-04-20T00:54:45.182Z,102192.91
2023-04-20T00:57:15.537Z,102197.78
2023-04-20T00:59:43.712Z,102198.03
2023-04-20T01:02:12.126Z,102201.97
2023-04-20T01:04:41.307Z,102189.69
2023-04-20T01:07:09.181Z,102180.94
2023-04-20T01:09:39.181Z,102174.13
2023-04-20T01:12:07.637Z,102180.25
2023-04-20T01:14:37.047Z,102186.47
2023-04-20T01:17:06.112Z,102179.97
2023-04-20T01:19:34.680Z,102174.63
2023-04-20T01:22:02.947Z,102180.66
2023-04-20T01:24:32.578Z,102176.25
2023-04-20T01:29:29.925Z,102174.41
2023-04-20T01:31:58.172Z,102182.72
2023-04-20T01:34:26.304Z,102171.91
2023-04-20T01:36:54.328Z,102173.59
2023-04-20T01:39:22.302Z,102173.59
2023-04-20T01:41:51.866Z,102178.97
2023-04-20T01:44:19.854Z,102181.81
2023-04-20T01:46:47.851Z,102178.00
2023-04-20T01:49:16.219Z,102161.91
2023-04-20T01:51:44.320Z,102166.41
2023-04-20T01:54:12.267Z,102170.13
2023-04-20T01:56:40.679Z,102157.41
2023-04-20T01:59:09.994Z,102148.38
2023-04-20T02:01:37.843Z,102152.28
2023-04-20T02:04:06.286Z,102154.19
2023-04-20T02:06:34.290Z,102164.81
2023-04-20T02:09:02.152Z,102165.28
2023-04-20T02:11:30.062Z,102157.22
2023-04-20T02:13:58.077Z,102156.66
2023-04-20T02:16:29.367Z,102140.38
2023-04-20T02:18:57.523Z,102138.78
2023-04-20T02:21:25.948Z,102133.72
2023-04-20T02:23:53.796Z,102133.97
2023-04-20T02:26:21.781Z,102128.38
2023-04-20T02:28:49.610Z,102131.81
2023-04-20T02:31:17.754Z,102124.97
2023-04-20T02:33:47.793Z,102128.41
2023-04-20T02:36:15.776Z,102127.91
2023-04-20T02:38:43.820Z,102117.94
2023-04-20T02:41:11.790Z,102114.16
2023-04-20T02:43:40.179Z,102107.69
2023-04-20T02:46:08.531Z,102124.16
2023-04-20T02:48:36.572Z,102117.25
2023-04-20T02:51:05.784Z,102113.13
2023-04-20T02:53:33.698Z,102114.59
2023-04-20T02:56:02.033Z,102106.41
2023-04-20T02:58:30.006Z,102106.34
2023-04-20T03:01:01.297Z,102106.34
2023-04-20T03:03:30.386Z,102118.91
2023-04-20T03:05:58.593Z,102102.78
2023-04-20T03:08:27.855Z,102113.50
2023-04-20T03:10:55.728Z,102122.25
2023-04-20T03:13:23.687Z,102110.41
2023-04-20T03:15:51.574Z,102117.56
2023-04-20T03:18:19.688Z,102114.59
2023-04-20T03:20:47.540Z,102112.00
2023-04-20T03:23:15.476Z,102115.53
2023-04-20T03:25:44.827Z,102112.88
2023-04-20T03:28:12.707Z,102115.69
2023-04-20T03:30:40.662Z,102121.25
2023-04-20T03:33:09.078Z,102112.25
2023-04-20T03:35:39.399Z,102120.47
2023-04-20T03:38:07.475Z,102116.63
2023-04-20T03:40:36.420Z,102122.75
2023-04-20T03:43:05.917Z,102124.53
2023-04-20T03:45:34.065Z,102123.13
2023-04-20T03:48:02.190Z,102121.34
2023-04-20T03:50:30.252Z,102117.03
2023-04-20T03:52:58.123Z,102116.72
2023-04-20T03:55:27.326Z,102115.44
2023-04-20T03:57:55.825Z,102119.16
2023-04-20T04:00:25.210Z,102112.31
2023-04-20T04:02:53.255Z,102107.84
2023-04-20T04:05:21.287Z,102114.03
2023-04-20T04:07:49.419Z,102093.66
2023-04-20T04:10:19.038Z,102105.69
2023-04-20T04:12:47.137Z,102104.22
2023-04-20T04:15:19.648Z,102100.97
2023-04-20T04:17:49.259Z,102095.47
2023-04-20T04:20:19.721Z,102109.47
2023-04-20T04:22:47.653Z,102110.41
2023-04-20T04:25:15.696Z,102113.84
2023-04-20T04:27:44.043Z,102121.41
2023-04-20T04:30:13.936Z,102119.09
2023-04-20T04:32:42.114Z,102130.63
2023-04-20T04:35:11.903Z,102123.06
2023-04-20T04:37:39.892Z,102131.03
2023-04-20T04:40:10.009Z,102115.16
2023-04-20T04:42:38.131Z,102135.25
2023-04-20T04:45:07.547Z,102140.31
2023-04-20T04:47:36.475Z,102129.69
2023-04-20T04:50:05.677Z,102128.91
2023-04-20T04:52:35.167Z,102125.72
2023-04-20T04:55:08.074Z,102127.72
2023-04-20T04:57:36.267Z,102136.69
2023-04-20T05:00:06.903Z,102134.59
2023-04-20T05:02:35.163Z,102139.84
2023-04-20T05:05:03.524Z,102131.41
2023-04-20T05:07:31.459Z,102134.91
2023-04-20T05:10:00.784Z,102131.44
2023-04-20T05:12:31.680Z,102124.78
2023-04-20T05:14:59.621Z,102128.50
2023-04-20T05:17:28.435Z,102132.22
2023-04-20T05:19:56.456Z,102134.94
2023-04-20T05:22:24.688Z,102138.06
2023-04-20T05:24:52.666Z,102133.69
2023-04-20T05:27:22.440Z,102139.06
2023-04-20T05:29:50.803Z,102130.94
2023-04-20T05:32:18.710Z,102143.03
2023-04-20T05:34:46.677Z,102147.13
2023-04-20T05:37:16.167Z,102135.41
2023-04-20T05:39:44.215Z,102138.91
2023-04-20T05:42:12.171Z,102124.91
2023-04-20T05:44:43.250Z,102138.97
2023-04-20T05:47:11.479Z,102138.72
2023-04-20T05:49:39.632Z,102136.41
2023-04-20T05:52:07.516Z,102137.81
2023-04-20T05:54:35.535Z,102135.88
2023-04-20T05:57:05.449Z,102146.03
2023-04-20T05:59:33.651Z,102153.25
2023-04-20T06:02:03.069Z,102154.13
2023-04-20T06:04:31.802Z,102160.16
2023-04-20T06:07:00.417Z,102152.19
2023-04-20T06:09:28.391Z,102142.84
2023-04-20T06:11:56.305Z,102149.25
2023-04-20T06:14:24.292Z,102148.94
2023-04-20T06:16:52.322Z,102146.13
2023-04-20T06:19:21.620Z,102143.31
2023-04-20T06:21:49.634Z,102146.34
2023-04-20T06:24:17.637Z,102143.75
2023-04-20T06:26:45.647Z,102141.09
2023-04-20T06:29:15.348Z,102130.41
2023-04-20T06:31:43.336Z,102139.16
2023-04-20T06:34:12.493Z,102146.69
2023-04-20T06:36:45.032Z,102133.25
2023-04-20T06:39:13.092Z,102130.03
2023-04-20T06:41:41.497Z,102138.34
2023-04-20T06:44:09.387Z,102136.06
2023-04-20T06:46:37.568Z,102141.00
2023-04-20T06:49:05.590Z,102143.38
2023-04-20T06:51:34.622Z,102146.44
2023-04-20T06:54:04.060Z,102144.97
2023-04-20T06:56:34.224Z,102153.59
2023-04-20T06:59:03.571Z,102156.91
2023-04-20T07:01:33.349Z,102151.50
2023-04-20T07:04:02.291Z,102154.31
2023-04-20T07:06:30.628Z,102153.28
2023-04-20T07:08:58.747Z,102160.72
2023-04-20T07:11:28.124Z,102156.00
2023-04-20T07:13:56.087Z,102158.50
2023-04-20T07:16:24.233Z,102163.38
2023-04-20T07:18:52.361Z,102163.22
2023-04-20T07:21:20.288Z,102170.97
2023-04-20T07:23:48.409Z,102167.44
2023-04-20T07:26:16.434Z,102174.69
2023-04-20T07:28:45.640Z,102171.56
2023-04-20T07:31:13.607Z,102176.53
2023-04-20T07:33:41.621Z,102175.59
2023-04-20T07:36:10.297Z,102178.13
2023-04-20T07:38:38.685Z,102178.72
2023-04-20T07:41:10.039Z,102182.91
2023-04-20T07:43:38.669Z,102179.56
2023-04-20T07:46:08.226Z,102176.59
2023-04-20T07:48:38.120Z,102180.31
2023-04-20T07:51:06.164Z,102177.03
2023-04-20T07:53:35.621Z,102181.97
2023-04-20T07:56:03.645Z,102181.50
2023-04-20T07:58:31.547Z,102179.00
2023-04-20T08:00:59.668Z,102184.13
2023-04-20T08:03:29.159Z,102190.06
2023-04-20T08:05:57.374Z,102195.25
2023-04-20T08:08:25.479Z,102205.50
2023-04-20T08:10:53.361Z,102195.91
2023-04-20T08:13:21.306Z,102196.59
2023-04-20T08:15:49.465Z,102196.44
2023-04-20T08:18:17.704Z,102204.63
2023-04-20T08:20:47.810Z,102215.94
2023-04-20T08:23:15.812Z,102217.06
2023-04-20T08:25:43.782Z,102219.47
2023-04-20T08:28:19.295Z,102216.81
2023-04-20T08:30:53.009Z,102212.06
2023-04-20T08:33:21.680Z,102200.84
2023-04-20T08:35:51.712Z,102204.72
2023-04-20T08:38:30.659Z,102206.09
2023-04-20T08:41:01.492Z,102218.41
2023-04-20T08:43:31.087Z,102203.66
2023-04-20T08:46:01.825Z,102200.72
2023-04-20T08:48:36.594Z,102198.91
2023-04-20T08:51:07.396Z,102204.81
2023-04-20T08:53:35.488Z,102203.75
2023-04-20T08:56:03.793Z,102199.19
2023-04-20T08:58:33.985Z,102191.13
2023-04-20T09:01:02.046Z,102193.66
2023-04-20T09:03:34.986Z,102185.78
2023-04-20T09:06:03.147Z,102185.66
2023-04-20T09:08:40.285Z,102185.19
2023-04-20T09:11:08.565Z,102206.41
2023-04-20T09:13:36.442Z,102210.19
2023-04-20T09:16:14.579Z,102206.59
2023-04-20T09:18:53.027Z,102205.06
2023-04-20T09:21:21.048Z,102214.78
2023-04-20T09:24:00.182Z,102212.41
2023-04-20T09:26:28.480Z,102213.94
2023-04-20T09:28:56.496Z,102214.63
2023-04-20T09:31:25.630Z,102219.75
2023-04-20T09:34:02.207Z,102228.06
2023-04-20T09:36:38.128Z,102235.94
2023-04-20T09:39:09.448Z,102237.03
2023-04-20T09:41:38.956Z,102233.75
2023-04-20T09:44:07.613Z,102220.41
2023-04-20T09:46:37.601Z,102218.59
2023-04-20T09:49:07.247Z,102219.66
2023-04-20T09:51:38.578Z,102211.06
2023-04-20T09:54:08.667Z,102190.44
2023-04-20T09:56:36.810Z,102192.38
2023-04-20T09:59:04.940Z,102191.53
2023-04-20T10:01:34.858Z,102186.63
2023-04-20T10:04:04.186Z,102193.56
2023-04-20T10:06:35.335Z,102194.06
2023-04-20T10:09:05.537Z,102192.94
2023-04-20T10:11:49.000Z,102202.56
2023-04-20T10:14:23.370Z,102216.47
2023-04-20T10:17:01.819Z,102208.75
2023-04-20T10:19:41.558Z,102218.91
2023-04-20T10:22:10.604Z,102217.75
2023-04-20T10:24:39.127Z,102215.69
2023-04-20T10:27:27.347Z,102220.22
2023-04-20T10:29:55.417Z,102215.28
2023-04-20T10:32:25.292Z,102225.16
2023-04-20T10:35:13.945Z,102218.03
2023-04-20T10:37:49.236Z,102219.41
2023-04-20T10:40:17.346Z,102215.00
2023-04-20T10:42:47.144Z,102219.94
2023-04-20T10:45:15.150Z,102219.22
2023-04-20T10:47:45.350Z,102215.25
2023-04-20T10:50:16.093Z,102222.78
2023-04-20T10:52:45.213Z,102215.34
2023-04-20T10:55:21.026Z,102211.78
2023-04-20T10:57:53.435Z,102210.41
2023-04-20T11:00:24.086Z,102210.66
2023-04-20T11:02:53.776Z,102212.38
2023-04-20T11:05:23.101Z,102205.78
2023-04-20T11:07:54.770Z,102205.84
2023-04-20T11:10:24.947Z,102197.34
2023-04-20T11:12:54.398Z,102202.78
2023-04-20T11:15:32.872Z,102197.56
2023-04-20T11:18:08.762Z,102202.72
2023-04-20T11:20:37.587Z,102202.66
2023-04-20T11:23:06.793Z,102206.31
2023-04-20T11:25:34.997Z,102211.25
2023-04-20T11:28:10.396Z,102204.78
2023-04-20T11:30:42.221Z,102202.50
2023-04-20T11:33:11.217Z,102198.50
2023-04-20T11:35:40.255Z,102200.59
2023-04-20T11:38:08.797Z,102203.13
2023-04-20T11:40:37.377Z,102207.25
2023-04-20T11:43:05.684Z,102199.09
2023-04-20T11:45:36.749Z,102193.75
2023-04-20T11:48:06.529Z,102197.53
2023-04-20T11:50:38.304Z,102196.66
2023-04-20T11:53:07.585Z,102198.84
2023-04-20T11:55:35.434Z,102199.22
2023-04-20T11:58:03.992Z,102203.03
2023-04-20T12:00:32.146Z,102200.53
2023-04-20T12:03:02.192Z,102204.91
2023-04-20T12:05:30.428Z,102203.19
2023-04-20T12:07:58.415Z,102211.63
2023-04-20T12:10:26.426Z,102202.06
2023-04-20T12:12:54.889Z,102212.47
2023-04-20T12:15:22.866Z,102206.72
2023-04-20T12:17:50.743Z,102210.22
2023-04-20T12:20:20.227Z,102214.75
2023-04-20T12:22:48.239Z,102214.31
2023-04-20T12:25:18.774Z,102217.28
2023-04-20T12:27:48.181Z,102219.16
2023-04-20T12:30:17.759Z,102223.16
2023-04-20T12:32:45.729Z,102219.00
2023-04-20T12:35:13.690Z,102222.19
2023-04-20T12:37:43.131Z,102218.03
2023-04-20T12:40:11.750Z,102226.72
2023-04-20T12:42:39.847Z,102223.66
2023-04-20T12:45:09.357Z,102228.94
2023-04-20T12:47:37.487Z,102214.38
2023-04-20T12:50:07.361Z,102207.91
2023-04-20T12:52:35.652Z,102201.84
2023-04-20T12:55:08.533Z,102198.50
2023-04-20T12:57:37.404Z,102203.34
2023-04-20T13:00:09.046Z,102193.94
2023-04-20T13:02:37.289Z,102199.91
2023-04-20T13:05:05.939Z,102195.28
2023-04-20T13:07:33.998Z,102201.75
2023-04-20T13:10:02.473Z,102194.22
2023-04-20T13:12:32.007Z,102188.53
2023-04-20T13:14:59.834Z,102189.38
2023-04-20T13:17:27.883Z,102188.03
2023-04-20T13:19:55.880Z,102192.03
2023-04-20T13:22:23.750Z,102187.91
2023-04-20T13:24:54.818Z,102171.88
2023-04-20T13:27:22.853Z,102178.28
2023-04-20T13:29:55.396Z,102172.69
2023-04-20T13:32:23.329Z,102182.56
2023-04-20T13:34:52.304Z,102174.41
2023-04-20T13:37:20.610Z,102171.69
2023-04-20T13:39:48.996Z,102171.31
2023-04-20T13:42:16.936Z,102165.31
2023-04-20T13:44:45.743Z,102160.75
2023-04-20T13:47:16.317Z,102157.06
2023-04-20T13:49:44.669Z,102146.66
2023-04-20T13:52:12.748Z,102139.72
2023-04-20T13:54:40.690Z,102140.91
2023-04-20T13:57:09.011Z,102135.00
2023-04-20T13:59:36.970Z,102129.22
2023-04-20T14:02:04.910Z,102128.66
2023-04-20T14:04:34.601Z,102133.09
2023-04-20T14:07:02.699Z,102127.63
2023-04-20T14:09:32.256Z,102116.53
2023-04-20T14:12:01.612Z,102123.97
2023-04-20T14:14:29.817Z,102129.19
2023-04-20T14:16:57.779Z,102125.47
2023-04-20T14:19:25.688Z,102124.09
2023-04-20T14:21:55.082Z,102118.31
2023-04-20T14:24:23.130Z,102114.34
2023-04-20T14:26:52.157Z,102106.28
2023-04-20T14:29:20.166Z,102110.66
2023-04-20T14:31:48.483Z,102113.50
2023-04-20T14:34:16.759Z,102106.72
2023-04-20T14:36:44.904Z,102097.88
2023-04-20T14:39:14.762Z,102092.41
2023-04-20T14:41:42.932Z,102100.66
2023-04-20T14:44:11.088Z,102088.88
2023-04-20T14:46:42.267Z,102084.09
2023-04-20T14:49:10.911Z,102083.09
2023-04-20T14:51:38.831Z,102079.44
2023-04-20T14:54:06.846Z,102075.63
2023-04-20T14:56:36.544Z,102068.59
2023-04-20T14:59:04.732Z,102064.22
2023-04-20T15:01:32.711Z,102056.19
2023-04-20T15:04:02.002Z,102050.81
2023-04-20T15:06:30.096Z,102061.34
2023-04-20T15:08:58.383Z,102057.41
2023-04-20T15:11:26.295Z,102057.97
2023-04-20T15:13:55.699Z,102052.03
2023-04-20T15:16:23.670Z,102045.63
2023-04-20T15:18:53.293Z,102044.31
2023-04-20T15:21:21.572Z,102043.34
2023-04-20T15:23:49.589Z,102034.31
2023-04-20T15:26:17.677Z,102032.28
2023-04-20T15:28:46.332Z,102031.41
2023-04-20T15:31:18.996Z,102024.56
2023-04-20T15:33:47.995Z,102026.03
2023-04-20T15:36:20.103Z,102027.44
2023-04-20T15:38:48.280Z,102020.50
2023-04-20T15:41:16.528Z,102014.22
2023-04-20T15:43:44.816Z,102009.94
2023-04-20T15:46:13.153Z,102003.34
2023-04-20T15:48:43.319Z,102010.25
2023-04-20T15:51:11.320Z,102000.66
2023-04-20T15:53:39.373Z,101998.84
2023-04-20T15:56:07.508Z,101998.41
2023-04-20T15:58:35.784Z,101999.00
2023-04-20T16:01:03.886Z,101993.47
2023-04-20T16:03:35.173Z,101997.22
2023-04-20T16:06:04.804Z,101998.00
2023-04-20T16:08:36.535Z,101984.78
2023-04-20T16:11:04.699Z,102001.53
2023-04-20T16:13:37.065Z,102001.69
2023-04-20T16:16:05.254Z,102000.56
2023-04-20T16:18:33.894Z,102002.28
2023-04-20T16:21:01.919Z,102005.88
2023-04-20T16:23:32.387Z,102009.50
2023-04-20T16:26:03.424Z,101994.03
2023-04-20T16:28:32.704Z,102008.84
2023-04-20T16:31:00.696Z,102003.22
2023-04-20T16:33:32.646Z,102006.94
2023-04-20T16:36:01.890Z,102014.34
2023-04-20T16:38:32.239Z,102013.38
2023-04-20T16:41:00.189Z,102014.75
2023-04-20T16:43:30.476Z,102014.28
2023-04-20T16:45:58.907Z,102009.34
2023-04-20T16:48:26.929Z,102021.47
2023-04-20T16:50:55.016Z,102014.00
2023-04-20T16:53:22.924Z,102012.13
2023-04-20T16:55:52.486Z,102010.28
2023-04-20T16:58:20.684Z,102003.59
2023-04-20T17:00:48.673Z,102001.72
2023-04-20T17:03:16.646Z,102012.38
2023-04-20T17:05:46.583Z,102011.81
2023-04-20T17:08:14.435Z,102011.66
2023-04-20T17:10:42.312Z,102015.91
2023-04-20T17:13:11.647Z,102016.63
2023-04-20T17:15:40.136Z,102016.44
2023-04-20T17:18:08.157Z,102013.47
2023-04-20T17:20:36.260Z,102011.66
2023-04-20T17:23:04.419Z,101988.38
2023-04-20T17:25:35.296Z,101998.81
2023-04-20T17:28:03.837Z,101988.06
2023-04-20T17:30:35.214Z,101987.75
2023-04-20T17:33:03.214Z,101984.06
2023-04-20T17:35:31.706Z,101984.06
2023-04-20T17:38:00.232Z,101983.44
2023-04-20T17:40:28.349Z,101978.63
2023-04-20T17:42:56.439Z,101980.44
2023-04-20T17:45:24.697Z,101983.09
2023-04-20T17:47:54.423Z,101976.16
2023-04-20T17:50:22.959Z,101984.63
2023-04-20T17:52:51.657Z,101974.09
2023-04-20T17:55:19.912Z,101976.25
2023-04-20T17:57:48.272Z,101986.66
2023-04-20T18:00:17.287Z,101976.97
2023-04-20T18:02:45.583Z,101988.81
2023-04-20T18:05:15.573Z,101989.41
2023-04-20T18:07:43.750Z,101985.34
2023-04-20T18:10:13.649Z,101990.44
2023-04-20T18:12:41.693Z,101990.94
2023-04-20T18:15:10.911Z,101996.38
2023-04-20T18:17:39.240Z,101998.81
2023-04-20T18:20:08.769Z,101993.63
2023-04-20T18:22:38.335Z,102000.91
2023-04-20T18:25:07.082Z,102006.72
2023-04-20T18:27:35.101Z,102010.78
2023-04-20T18:30:03.257Z,102007.31
2023-04-20T18:32:36.264Z,102009.97
2023-04-20T18:35:04.332Z,102012.00
2023-04-20T18:37:33.347Z,102010.31
2023-04-20T18:40:03.328Z,102015.66
2023-04-20T18:42:34.484Z,102012.66
2023-04-20T18:45:06.458Z,102009.00
2023-04-20T18:47:34.757Z,102004.25
2023-04-20T18:50:02.803Z,102015.66
2023-04-20T18:52:34.569Z,102013.72
2023-04-20T18:55:04.074Z,102007.72
2023-04-20T18:57:32.614Z,102010.22
2023-04-20T19:00:00.622Z,102007.91
2023-04-20T19:02:28.820Z,102003.31
2023-04-20T19:04:56.906Z,101997.31
2023-04-20T19:07:24.871Z,102004.44
2023-04-20T19:09:52.806Z,102003.66
2023-04-20T19:12:23.120Z,102002.19
2023-04-20T19:14:51.603Z,102000.19
2023-04-20T19:17:22.172Z,102001.31
2023-04-20T19:19:51.041Z,102004.94
2023-04-20T19:22:19.172Z,102007.75
2023-04-20T19:24:47.198Z,102013.97
2023-04-20T19:27:16.376Z,102016.19
2023-04-20T19:29:46.237Z,102017.41
2023-04-20T19:32:14.196Z,102017.47
2023-04-20T19:34:42.798Z,102017.28
2023-04-20T19:37:11.042Z,102021.47
2023-04-20T19:39:39.183Z,102031.63
2023-04-20T19:42:08.070Z,102024.59
2023-04-20T19:44:36.601Z,102025.72
2023-04-20T19:47:06.072Z,102036.47
2023-04-20T19:49:34.143Z,102023.28
2023-04-20T19:52:02.279Z,102030.06
2023-04-20T19:54:31.330Z,102036.94
2023-04-20T19:56:59.800Z,102041.66
2023-04-20T19:59:32.696Z,102037.25
2023-04-20T20:02:01.128Z,102039.94
2023-04-20T20:04:35.142Z,102039.66
2023-04-20T20:07:05.339Z,102037.66
2023-04-20T20:09:38.193Z,102038.22
2023-04-20T20:12:08.538Z,102041.69
2023-04-20T20:14:37.855Z,102035.75
2023-04-20T20:17:06.660Z,102040.38
2023-04-20T20:19:36.188Z,102043.06
2023-04-20T20:22:07.334Z,102038.97
2023-04-20T20:24:35.217Z,102043.44
2023-04-20T20:27:03.837Z,102045.84
2023-04-20T20:29:34.626Z,102047.56
2023-04-20T20:32:02.593Z,102047.03
2023-04-20T20:34:31.110Z,102047.41
2023-04-20T20:37:00.385Z,102045.84
2023-04-20T20:39:28.347Z,102052.47
2023-04-20T20:41:57.206Z,102042.53
2023-04-20T20:44:25.361Z,102044.16
2023-04-20T20:46:53.296Z,102042.59
2023-04-20T20:49:21.540Z,102038.38
2023-04-20T20:51:49.432Z,102049.25
2023-04-20T20:54:18.875Z,102051.28
2023-04-20T20:56:46.815Z,102052.09
2023-04-20T20:59:14.707Z,102041.50
2023-04-20T21:01:42.753Z,102039.81
2023-04-20T21:04:11.008Z,102038.69
2023-04-20T21:06:39.207Z,102046.75
2023-04-20T21:09:07.294Z,102051.34
2023-04-20T21:11:36.679Z,102051.41
2023-04-20T21:14:04.788Z,102044.22
2023-04-20T21:16:32.800Z,102052.53
2023-04-20T21:19:00.714Z,102054.56
2023-04-20T21:21:29.081Z,102051.66
2023-04-20T21:23:57.013Z,102051.00
2023-04-20T21:26:25.248Z,102056.63
2023-04-20T21:28:54.582Z,102054.84
2023-04-20T21:31:22.420Z,102057.56
2023-04-20T21:33:50.915Z,102058.25
2023-04-20T21:36:18.949Z,102055.66
2023-04-20T21:38:47.025Z,102056.31
2023-04-20T21:41:15.205Z,102049.81
2023-04-20T21:43:45.272Z,102051.69
2023-04-20T21:46:17.236Z,102053.94
2023-04-20T21:48:45.301Z,102050.38
2023-04-20T21:51:16.209Z,102057.25
2023-04-20T21:53:44.255Z,102054.75
2023-04-20T21:56:12.494Z,102054.31
2023-04-20T21:58:40.674Z,102046.38
2023-04-20T22:01:09.100Z,102055.44
2023-04-20T22:03:40.811Z,102054.22
2023-04-20T22:06:09.740Z,102053.50
2023-04-20T22:08:39.797Z,102050.09
2023-04-20T22:11:07.958Z,102053.69
2023-04-20T22:13:36.905Z,102053.81
2023-04-20T22:16:05.285Z,102052.97
2023-04-20T22:18:33.370Z,102054.00
2023-04-20T22:21:03.498Z,102060.56
2023-04-20T22:23:31.906Z,102060.13
2023-04-20T22:26:02.686Z,102052.13
2023-04-20T22:28:30.758Z,102054.13
2023-04-20T22:30:58.940Z,102053.94
2023-04-20T22:33:26.838Z,102058.66
2023-04-20T22:35:55.080Z,102048.16
2023-04-20T22:38:24.445Z,102050.94
2023-04-20T22:40:55.332Z,102051.88
2023-04-20T22:43:23.490Z,102049.97
2023-04-20T22:45:51.685Z,102039.88
2023-04-20T22:48:22.707Z,102048.75
2023-04-20T22:50:51.170Z,102040.84
2023-04-20T22:53:19.151Z,102046.13
2023-04-20T22:55:48.552Z,102045.41
2023-04-20T22:58:16.992Z,102039.22
2023-04-20T23:00:45.340Z,102038.13
2023-04-20T23:03:13.571Z,102034.66
2023-04-20T23:05:44.520Z,102039.13
2023-04-20T23:08:14.158Z,102047.66
2023-04-20T23:10:42.220Z,102043.84
2023-04-20T23:13:16.654Z,102044.59
2023-04-20T23:15:44.935Z,102045.69
2023-04-20T23:18:13.394Z,102056.81
2023-04-20T23:20:41.387Z,102049.78
2023-04-20T23:23:10.753Z,102038.47
2023-04-20T23:25:38.801Z,102045.41
2023-04-20T23:28:07.039Z,102043.56
2023-04-20T23:30:36.743Z,102040.22
2023-04-20T23:33:05.133Z,102034.22
2023-04-20T23:35:33.677Z,102039.25
2023-04-20T23:38:01.723Z,102030.66
2023-04-20T23:40:29.665Z,102033.59
2023-04-20T23:42:57.697Z,102039.47
2023-04-20T23:45:25.760Z,102040.06
2023-04-20T23:47:55.150Z,102038.22
2023-04-20T23:50:23.225Z,102033.00
2023-04-20T23:52:51.200Z,102035.00
2023-04-20T23:55:19.424Z,102030.44
2023-04-20T23:57:48.224Z,102026.97
